createdAt,value
2019-01-20T00:00:56.695Z,60.30
2019-01-20T00:03:25.879Z,61.30
2019-01-20T00:05:54.788Z,61.40
2019-01-20T00:08:23.728Z,62.00
2019-01-20T00:10:52.640Z,62.40
2019-01-20T00:13:21.689Z,64.30
2019-01-20T00:15:51.962Z,65.50
2019-01-20T00:18:23.038Z,67.10
2019-01-20T00:20:51.979Z,69.10
2019-01-20T00:23:23.831Z,69.00
2019-01-20T00:25:53.695Z,70.00
2019-01-20T00:28:22.744Z,71.30
2019-01-20T00:30:53.001Z,72.90
2019-01-20T00:33:21.981Z,73.20
2019-01-20T00:35:51.029Z,74.00
2019-01-20T00:38:20.033Z,74.70
2019-01-20T00:40:48.975Z,75.00
2019-01-20T00:43:19.141Z,75.50
2019-01-20T00:45:47.941Z,77.40
2019-01-20T00:48:16.955Z,77.30
2019-01-20T00:50:45.812Z,77.30
2019-01-20T00:53:14.985Z,77.50
2019-01-20T00:55:45.366Z,77.80
2019-01-20T00:58:14.437Z,78.20
2019-01-20T01:00:44.862Z,78.90
2019-01-20T01:03:14.181Z,80.10
2019-01-20T01:05:43.187Z,81.30
2019-01-20T01:08:14.814Z,81.60
2019-01-20T01:10:53.556Z,81.50
2019-01-20T01:13:23.097Z,81.60
2019-01-20T01:15:52.194Z,82.00
2019-01-20T01:18:21.135Z,82.00
2019-01-20T01:20:50.041Z,82.20
2019-01-20T01:23:21.841Z,82.60
2019-01-20T01:25:50.776Z,83.60
2019-01-20T01:28:19.906Z,83.90
2019-01-20T01:30:48.913Z,84.50
2019-01-20T01:33:17.899Z,86.90
2019-01-20T01:35:46.903Z,87.00
2019-01-20T01:38:15.833Z,87.70
2019-01-20T01:40:44.653Z,86.00
2019-01-20T01:43:13.575Z,82.50
2019-01-20T01:45:42.621Z,79.70
2019-01-20T01:48:11.500Z,76.10
2019-01-20T01:50:40.318Z,74.50
2019-01-20T01:53:09.303Z,74.40
2019-01-20T01:55:39.207Z,74.00
2019-01-20T01:58:08.349Z,73.40
2019-01-20T02:00:37.429Z,72.70
2019-01-20T02:03:06.445Z,71.70
2019-01-20T02:05:36.824Z,70.80
2019-01-20T02:08:06.243Z,70.70
2019-01-20T02:10:35.701Z,70.90
2019-01-20T02:13:04.809Z,71.50
2019-01-20T02:15:33.802Z,72.50
2019-01-20T02:18:02.903Z,73.90
2019-01-20T02:20:34.490Z,73.10
2019-01-20T02:23:03.359Z,73.50
2019-01-20T02:25:32.276Z,73.10
2019-01-20T02:28:01.290Z,73.50
2019-01-20T02:30:31.144Z,74.00
2019-01-20T02:33:08.228Z,74.40
2019-01-20T02:35:35.154Z,76.20
2019-01-20T02:38:05.887Z,76.10
2019-01-20T02:40:36.337Z,78.20
2019-01-20T02:43:06.606Z,79.20
2019-01-20T02:45:35.485Z,78.60
2019-01-20T02:48:07.847Z,77.60
2019-01-20T02:50:37.171Z,77.90
2019-01-20T02:53:06.400Z,78.60
2019-01-20T02:55:35.522Z,78.00
2019-01-20T02:58:07.257Z,78.90
2019-01-20T03:00:36.693Z,78.50
2019-01-20T03:03:05.644Z,77.40
2019-01-20T03:05:34.762Z,76.00
2019-01-20T03:08:03.758Z,75.80
2019-01-20T03:10:33.376Z,75.20
2019-01-20T03:13:02.285Z,74.40
2019-01-20T03:15:31.325Z,74.90
2019-01-20T03:18:00.223Z,76.30
2019-01-20T03:20:29.087Z,80.00
2019-01-20T03:22:57.987Z,79.80
2019-01-20T03:25:30.391Z,78.90
2019-01-20T03:27:59.283Z,78.30
2019-01-20T03:30:28.999Z,78.60
2019-01-20T03:32:57.909Z,78.20
2019-01-20T03:35:28.207Z,77.80
2019-01-20T03:37:59.948Z,78.80
2019-01-20T03:40:30.216Z,80.60
2019-01-20T03:43:01.921Z,82.00
2019-01-20T03:45:30.813Z,84.30
2019-01-20T03:48:01.167Z,85.10
2019-01-20T03:50:30.531Z,84.10
2019-01-20T03:53:00.067Z,83.30
2019-01-20T03:55:29.865Z,82.30
2019-01-20T03:58:00.146Z,82.00
2019-01-20T04:00:29.062Z,82.60
2019-01-20T04:03:00.023Z,82.60
2019-01-20T04:05:30.610Z,82.40
2019-01-20T04:07:59.955Z,82.60
2019-01-20T04:10:30.189Z,84.50
2019-01-20T04:12:59.383Z,84.50
2019-01-20T04:15:29.551Z,85.70
2019-01-20T04:17:58.484Z,86.10
2019-01-20T04:20:27.880Z,85.80
2019-01-20T04:22:56.753Z,85.00
2019-01-20T04:25:25.623Z,84.90
2019-01-20T04:27:54.653Z,83.20
2019-01-20T04:30:23.652Z,83.10
2019-01-20T04:32:52.676Z,82.60
2019-01-20T04:35:23.009Z,82.70
2019-01-20T04:37:53.993Z,83.00
2019-01-20T04:40:23.499Z,83.80
2019-01-20T04:42:52.509Z,84.70
2019-01-20T04:45:24.812Z,86.00
2019-01-20T04:47:54.078Z,87.10
2019-01-20T04:50:24.847Z,88.10
2019-01-20T04:52:53.720Z,87.90
2019-01-20T04:55:25.848Z,88.00
2019-01-20T04:57:55.440Z,87.90
2019-01-20T05:00:26.727Z,87.70
2019-01-20T05:02:56.422Z,86.90
2019-01-20T05:05:25.645Z,86.80
2019-01-20T05:07:56.175Z,87.40
2019-01-20T05:10:26.564Z,87.40
2019-01-20T05:12:56.195Z,87.30
2019-01-20T05:15:25.301Z,87.40
2019-01-20T05:17:54.128Z,87.60
2019-01-20T05:20:23.870Z,87.20
2019-01-20T05:22:52.858Z,86.50
2019-01-20T05:25:22.115Z,86.60
2019-01-20T05:27:51.183Z,86.10
2019-01-20T05:30:23.671Z,87.00
2019-01-20T05:32:52.874Z,86.60
2019-01-20T05:35:23.747Z,86.40
2019-01-20T05:37:52.670Z,86.40
2019-01-20T05:40:23.507Z,87.40
2019-01-20T05:42:52.397Z,88.20
2019-01-20T05:45:23.446Z,88.20
2019-01-20T05:47:57.200Z,88.20
2019-01-20T05:50:26.426Z,89.60
2019-01-20T05:52:56.318Z,90.20
2019-01-20T05:55:25.301Z,90.10
2019-01-20T05:57:54.242Z,89.30
2019-01-20T06:00:25.877Z,89.20
2019-01-20T06:02:55.730Z,89.20
2019-01-20T06:05:25.420Z,89.00
2019-01-20T06:07:54.393Z,89.00
2019-01-20T06:10:24.852Z,88.60
2019-01-20T06:12:54.584Z,87.70
2019-01-20T06:15:25.362Z,87.30
2019-01-20T06:17:54.965Z,87.60
2019-01-20T06:20:24.317Z,86.90
2019-01-20T06:22:53.358Z,87.10
2019-01-20T06:25:24.920Z,87.60
2019-01-20T06:27:55.380Z,87.20
2019-01-20T06:30:28.349Z,87.00
2019-01-20T06:32:57.379Z,87.40
2019-01-20T06:35:27.555Z,88.20
2019-01-20T06:37:56.463Z,88.20
2019-01-20T06:40:26.739Z,88.20
2019-01-20T06:43:01.769Z,88.20
2019-01-20T06:45:26.476Z,88.20
2019-01-20T06:47:56.039Z,88.80
2019-01-20T06:50:26.098Z,89.40
2019-01-20T06:52:56.537Z,89.70
2019-01-20T06:55:26.348Z,89.20
2019-01-20T06:57:55.263Z,89.30
2019-01-20T07:00:27.475Z,89.40
2019-01-20T07:02:56.370Z,89.70
2019-01-20T07:05:25.312Z,89.70
2019-01-20T07:07:54.632Z,90.00
2019-01-20T07:10:26.479Z,90.20
2019-01-20T07:12:56.108Z,90.40
2019-01-20T07:15:25.254Z,90.40
2019-01-20T07:17:54.450Z,90.10
2019-01-20T07:20:23.911Z,90.10
2019-01-20T07:22:54.233Z,90.40
2019-01-20T07:25:24.533Z,90.40
2019-01-20T07:27:55.437Z,90.20
2019-01-20T07:30:25.972Z,90.00
2019-01-20T07:32:57.603Z,90.00
2019-01-20T07:35:28.474Z,89.70
2019-01-20T07:37:57.448Z,90.30
2019-01-20T07:40:26.386Z,90.70
2019-01-20T07:42:56.130Z,90.90
2019-01-20T07:45:25.064Z,91.20
2019-01-20T07:47:53.989Z,91.50
2019-01-20T07:50:25.028Z,91.80
2019-01-20T07:52:54.136Z,92.00
2019-01-20T07:55:23.246Z,92.30
2019-01-20T07:57:53.282Z,92.10
2019-01-20T08:00:24.384Z,91.70
2019-01-20T08:02:53.485Z,89.50
2019-01-20T08:05:24.556Z,76.40
2019-01-20T08:07:53.576Z,64.90
2019-01-20T08:10:25.000Z,58.30
2019-01-20T08:12:54.039Z,50.90
2019-01-20T08:15:23.222Z,45.30
2019-01-20T08:17:53.589Z,44.40
2019-01-20T08:20:24.288Z,43.20
2019-01-20T08:22:53.503Z,43.60
2019-01-20T08:25:23.552Z,41.60
2019-01-20T08:27:52.689Z,37.50
2019-01-20T08:30:23.966Z,40.20
2019-01-20T08:32:52.962Z,37.60
2019-01-20T08:35:23.983Z,36.70
2019-01-20T08:37:53.022Z,33.60
2019-01-20T08:40:24.443Z,34.40
2019-01-20T08:42:53.296Z,35.10
2019-01-20T08:45:23.542Z,34.50
2019-01-20T08:47:54.326Z,32.80
2019-01-20T08:50:24.032Z,30.20
2019-01-20T08:52:52.920Z,34.70
2019-01-20T08:55:22.239Z,33.80
2019-01-20T08:57:51.050Z,32.80
2019-01-20T09:00:20.294Z,31.10
2019-01-20T09:02:50.654Z,27.70
2019-01-20T09:05:21.110Z,29.10
2019-01-20T09:07:51.531Z,25.70
2019-01-20T09:10:25.102Z,24.70
2019-01-20T09:12:56.440Z,22.40
2019-01-20T09:15:25.409Z,21.90
2019-01-20T09:17:54.416Z,24.00
2019-01-20T09:20:24.343Z,23.90
2019-01-20T09:22:54.629Z,20.90
2019-01-20T09:25:23.697Z,21.40
2019-01-20T09:27:52.683Z,23.00
2019-01-20T09:30:23.535Z,23.90
2019-01-20T09:32:52.767Z,22.20
2019-01-20T09:35:22.669Z,21.60
2019-01-20T09:37:53.783Z,17.40
2019-01-20T09:40:22.867Z,21.20
2019-01-20T09:42:52.778Z,21.00
2019-01-20T09:45:27.169Z,22.20
2019-01-20T09:47:56.399Z,23.40
2019-01-20T09:50:25.625Z,23.40
2019-01-20T09:52:54.906Z,24.30
2019-01-20T09:55:23.998Z,22.40
2019-01-20T09:57:54.122Z,24.60
2019-01-20T10:00:26.173Z,25.70
2019-01-20T10:02:55.454Z,25.60
2019-01-20T10:05:25.846Z,24.50
2019-01-20T10:08:01.048Z,24.00
2019-01-20T10:10:30.699Z,25.80
2019-01-20T10:12:59.736Z,26.90
2019-01-20T10:15:28.651Z,27.00
2019-01-20T10:17:58.227Z,28.30
2019-01-20T10:20:29.633Z,28.50
2019-01-20T10:22:59.597Z,26.10
2019-01-20T10:25:28.674Z,26.50
2019-01-20T10:27:58.800Z,28.50
2019-01-20T10:30:30.453Z,26.80
2019-01-20T10:33:03.672Z,28.60
2019-01-20T10:35:35.640Z,28.30
2019-01-20T10:38:06.816Z,28.00
2019-01-20T10:40:35.706Z,27.80
2019-01-20T10:43:06.485Z,27.10
2019-01-20T10:45:35.782Z,28.00
2019-01-20T10:48:05.866Z,27.90
2019-01-20T10:50:34.867Z,28.30
2019-01-20T10:53:03.932Z,28.40
2019-01-20T10:55:33.454Z,28.10
2019-01-20T10:58:03.112Z,28.40
2019-01-20T11:00:36.531Z,27.70
2019-01-20T11:03:06.848Z,27.90
2019-01-20T11:05:36.201Z,28.50
2019-01-20T11:08:06.822Z,27.80
2019-01-20T11:10:36.012Z,28.60
2019-01-20T11:13:05.690Z,28.50
2019-01-20T11:15:34.712Z,28.70
2019-01-20T11:18:03.749Z,28.50
2019-01-20T11:20:34.116Z,28.50
2019-01-20T11:23:03.152Z,28.00
2019-01-20T11:25:35.441Z,28.50
2019-01-20T11:28:04.849Z,28.60
2019-01-20T11:30:34.012Z,27.70
2019-01-20T11:33:05.202Z,28.60
2019-01-20T11:35:35.521Z,28.70
2019-01-20T11:38:05.991Z,27.80
2019-01-20T11:40:36.473Z,27.50
2019-01-20T11:43:07.111Z,24.80
2019-01-20T11:45:36.243Z,24.40
2019-01-20T11:48:08.737Z,25.20
2019-01-20T11:50:38.443Z,22.80
2019-01-20T11:53:07.473Z,22.10
2019-01-20T11:55:37.197Z,23.00
2019-01-20T11:58:06.156Z,20.90
2019-01-20T12:00:36.839Z,21.40
2019-01-20T12:03:07.782Z,21.80
2019-01-20T12:05:39.625Z,21.20
2019-01-20T12:08:09.149Z,20.60
2019-01-20T12:10:38.357Z,21.00
2019-01-20T12:13:10.200Z,20.40
2019-01-20T12:15:39.059Z,19.80
2019-01-20T12:18:08.048Z,20.20
2019-01-20T12:20:39.599Z,17.40
2019-01-20T12:23:08.684Z,17.70
2019-01-20T12:25:37.927Z,18.00
2019-01-20T12:28:07.034Z,16.00
2019-01-20T12:30:38.549Z,17.10
2019-01-20T12:33:07.888Z,15.70
2019-01-20T12:35:38.339Z,13.80
2019-01-20T12:38:07.388Z,14.20
2019-01-20T12:40:39.281Z,14.30
2019-01-20T12:43:11.482Z,15.00
2019-01-20T12:45:40.663Z,14.90
2019-01-20T12:48:09.669Z,14.10
2019-01-20T12:50:38.565Z,13.80
2019-01-20T12:53:10.213Z,13.00
2019-01-20T12:55:40.691Z,12.20
2019-01-20T12:58:11.242Z,10.50
2019-01-20T13:00:40.291Z,10.70
2019-01-20T13:03:11.892Z,10.50
2019-01-20T13:05:40.765Z,10.20
2019-01-20T13:08:09.650Z,9.10
2019-01-20T13:10:38.752Z,8.30
2019-01-20T13:13:09.128Z,8.20
2019-01-20T13:15:39.333Z,8.50
2019-01-20T13:18:08.546Z,8.70
2019-01-20T13:20:37.697Z,8.20
2019-01-20T13:23:06.713Z,6.60
2019-01-20T13:25:35.827Z,6.40
2019-01-20T13:28:05.683Z,6.80
2019-01-20T13:30:34.691Z,4.60
2019-01-20T13:33:03.633Z,5.30
2019-01-20T13:35:33.911Z,5.00
2019-01-20T13:38:05.412Z,5.40
2019-01-20T13:40:37.510Z,6.10
2019-01-20T13:43:07.779Z,6.20
2019-01-20T13:45:38.948Z,6.00
2019-01-20T13:48:11.418Z,4.60
2019-01-20T13:50:41.400Z,5.20
2019-01-20T13:53:11.100Z,5.20
2019-01-20T13:55:40.220Z,4.60
2019-01-20T13:58:09.327Z,4.60
2019-01-20T14:00:39.608Z,4.60
2019-01-20T14:03:09.499Z,5.20
2019-01-20T14:05:39.720Z,5.30
2019-01-20T14:08:08.887Z,4.00
2019-01-20T14:10:38.870Z,4.60
2019-01-20T14:13:09.221Z,4.10
2019-01-20T14:15:38.239Z,4.00
2019-01-20T14:18:08.365Z,4.00
2019-01-20T14:20:37.388Z,3.70
2019-01-20T14:23:06.447Z,4.30
2019-01-20T14:25:35.518Z,4.30
2019-01-20T14:28:07.447Z,4.50
2019-01-20T14:30:37.004Z,3.60
2019-01-20T14:33:06.138Z,3.00
2019-01-20T14:35:36.345Z,3.70
2019-01-20T14:38:05.418Z,3.70
2019-01-20T14:40:36.302Z,3.00
2019-01-20T14:45:56.818Z,3.60
2019-01-20T14:48:26.893Z,2.80
2019-01-20T14:50:55.969Z,2.60
2019-01-20T14:53:27.256Z,2.50
2019-01-20T14:55:57.568Z,3.10
2019-01-20T14:58:26.454Z,2.90
2019-01-20T15:00:55.907Z,3.60
2019-01-20T15:03:32.428Z,2.70
2019-01-20T15:05:58.771Z,1.50
2019-01-20T15:08:27.995Z,1.50
2019-01-20T15:10:57.000Z,1.00
2019-01-20T15:13:27.527Z,1.50
2019-01-20T15:15:56.531Z,1.60
2019-01-20T15:18:25.586Z,2.50
2019-01-20T15:20:57.250Z,3.30
2019-01-20T15:23:26.566Z,4.60
2019-01-20T15:25:56.944Z,4.50
2019-01-20T15:28:27.449Z,5.20
2019-01-20T15:30:56.824Z,4.30
2019-01-20T15:33:27.641Z,4.60
2019-01-20T15:35:56.906Z,5.10
2019-01-20T15:38:27.258Z,6.00
2019-01-20T15:43:49.944Z,6.80
2019-01-20T15:46:20.382Z,7.10
2019-01-20T15:48:51.348Z,7.50
2019-01-20T15:51:20.623Z,7.90
2019-01-20T15:53:53.306Z,7.60
2019-01-20T15:56:23.878Z,8.00
2019-01-20T15:58:53.784Z,8.30
2019-01-20T16:01:24.292Z,9.20
2019-01-20T16:03:54.256Z,9.90
2019-01-20T16:06:24.440Z,11.10
2019-01-20T16:08:57.953Z,12.30
2019-01-20T16:11:31.298Z,13.20
2019-01-20T16:13:58.818Z,14.10
2019-01-20T16:16:27.943Z,14.80
2019-01-20T16:19:02.039Z,16.20
2019-01-20T16:21:31.786Z,16.60
2019-01-20T16:24:00.895Z,17.80
2019-01-20T16:26:31.733Z,19.10
2019-01-20T16:29:01.700Z,19.50
2019-01-20T16:31:32.472Z,20.20
2019-01-20T16:34:02.247Z,20.20
2019-01-20T16:36:31.241Z,22.10
2019-01-20T16:39:01.460Z,20.90
2019-01-20T16:41:33.101Z,21.70
2019-01-20T16:44:05.018Z,22.60
2019-01-20T16:46:37.305Z,23.60
2019-01-20T16:49:06.424Z,24.10
2019-01-20T16:51:35.492Z,25.50
2019-01-20T16:54:04.786Z,25.60
2019-01-20T16:56:33.688Z,25.50
2019-01-20T16:59:02.876Z,25.70
2019-01-20T17:01:32.097Z,26.00
2019-01-20T17:04:01.076Z,25.70
2019-01-20T17:06:30.016Z,25.50
2019-01-20T17:09:00.427Z,25.30
2019-01-20T17:11:29.466Z,26.60
2019-01-20T17:13:58.538Z,26.70
2019-01-20T17:16:27.566Z,28.20
2019-01-20T17:18:58.018Z,28.00
2019-01-20T17:21:27.061Z,27.90
2019-01-20T17:23:56.134Z,28.50
2019-01-20T17:26:25.120Z,28.50
2019-01-20T17:28:54.114Z,27.90
2019-01-20T17:31:23.241Z,29.40
2019-01-20T17:33:54.057Z,29.50
2019-01-20T17:36:24.355Z,30.10
2019-01-20T17:38:53.278Z,31.30
2019-01-20T17:41:27.404Z,31.50
2019-01-20T17:43:56.634Z,31.80
2019-01-20T17:46:27.259Z,33.10
2019-01-20T17:48:57.890Z,33.10
2019-01-20T17:51:29.783Z,33.60
2019-01-20T17:54:01.385Z,34.00
2019-01-20T17:56:31.597Z,34.70
2019-01-20T17:59:01.682Z,34.40
2019-01-20T18:01:32.702Z,34.30
2019-01-20T18:04:03.224Z,33.30
2019-01-20T18:06:34.373Z,34.10
2019-01-20T18:09:03.791Z,32.40
2019-01-20T18:11:33.418Z,33.10
2019-01-20T18:14:02.525Z,33.00
2019-01-20T18:16:32.394Z,32.70
2019-01-20T18:19:01.653Z,33.60
2019-01-20T18:21:30.687Z,34.60
2019-01-20T18:23:59.730Z,36.10
2019-01-20T18:26:29.733Z,37.20
2019-01-20T18:28:59.741Z,37.00
2019-01-20T18:31:31.708Z,37.10
2019-01-20T18:34:02.048Z,37.80
2019-01-20T18:36:32.366Z,38.20
2019-01-20T18:39:01.561Z,36.80
2019-01-20T18:41:32.046Z,37.00
2019-01-20T18:44:01.081Z,37.20
2019-01-20T18:46:31.305Z,37.20
2019-01-20T18:49:00.334Z,37.60
2019-01-20T18:51:29.309Z,38.30
2019-01-20T18:53:59.134Z,38.30
2019-01-20T18:56:31.468Z,39.20
2019-01-20T18:59:01.415Z,39.50
2019-01-20T19:01:34.720Z,42.10
2019-01-20T19:04:04.095Z,42.30
2019-01-20T19:06:33.246Z,42.70
2019-01-20T19:09:02.453Z,43.20
2019-01-20T19:11:31.999Z,42.80
2019-01-20T19:14:01.132Z,42.30
2019-01-20T19:16:30.388Z,42.40
2019-01-20T19:19:00.087Z,43.40
2019-01-20T19:21:29.217Z,43.90
2019-01-20T19:23:59.194Z,45.50
2019-01-20T19:26:30.321Z,48.40
2019-01-20T19:29:03.169Z,46.90
2019-01-20T19:31:31.334Z,46.80
2019-01-20T19:34:00.673Z,47.70
2019-01-20T19:36:31.218Z,49.00
2019-01-20T19:39:01.801Z,49.90
2019-01-20T19:41:31.610Z,51.10
2019-01-20T19:44:02.913Z,52.30
2019-01-20T19:46:33.136Z,52.40
2019-01-20T19:49:03.674Z,53.80
2019-01-20T19:51:33.130Z,55.50
2019-01-20T19:54:03.309Z,56.00
2019-01-20T19:56:35.208Z,57.10
2019-01-20T19:59:04.488Z,57.40
2019-01-20T20:01:33.537Z,57.30
2019-01-20T20:04:04.079Z,57.80
2019-01-20T20:06:33.174Z,59.20
2019-01-20T20:09:02.312Z,60.20
2019-01-20T20:11:31.450Z,60.80
2019-01-20T20:14:00.324Z,62.20
2019-01-20T20:16:29.664Z,63.20
2019-01-20T20:18:58.557Z,64.30
2019-01-20T20:21:27.541Z,65.80
2019-01-20T20:23:56.400Z,67.90
2019-01-20T20:26:25.462Z,68.90
2019-01-20T20:28:54.459Z,70.60
2019-01-20T20:31:23.633Z,72.00
2019-01-20T20:33:52.684Z,74.10
2019-01-20T20:36:21.858Z,74.90
2019-01-20T20:38:52.743Z,74.90
2019-01-20T20:41:21.872Z,72.30
2019-01-20T20:43:51.072Z,68.20
2019-01-20T20:46:20.570Z,66.10
2019-01-20T20:48:50.064Z,64.80
2019-01-20T20:51:19.050Z,64.70
2019-01-20T20:53:49.600Z,64.70
2019-01-20T20:56:18.912Z,64.60
2019-01-20T20:58:49.488Z,64.60
2019-01-20T21:01:21.218Z,65.10
2019-01-20T21:03:50.208Z,65.70
2019-01-20T21:06:19.286Z,65.70
2019-01-20T21:08:48.603Z,66.80
2019-01-20T21:11:17.574Z,66.90
2019-01-20T21:13:46.420Z,68.40
2019-01-20T21:16:15.434Z,68.90
2019-01-20T21:18:45.331Z,68.20
2019-01-20T21:21:14.441Z,68.00
2019-01-20T21:23:43.371Z,66.90
2019-01-20T21:26:12.334Z,65.30
2019-01-20T21:28:42.794Z,64.20
2019-01-20T21:31:12.075Z,62.40
2019-01-20T21:33:43.610Z,62.30
2019-01-20T21:36:13.650Z,61.40
2019-01-20T21:38:42.571Z,61.20
2019-01-20T21:41:12.681Z,62.70
2019-01-20T21:43:41.906Z,63.80
2019-01-20T21:46:10.788Z,64.20
2019-01-20T21:48:41.149Z,65.50
2019-01-20T21:51:10.081Z,66.80
2019-01-20T21:53:39.438Z,68.70
2019-01-20T21:56:08.317Z,69.30
2019-01-20T21:58:37.342Z,70.30
2019-01-20T22:01:06.314Z,70.70
2019-01-20T22:03:35.271Z,71.50
2019-01-20T22:06:04.354Z,71.80
2019-01-20T22:08:34.976Z,73.30
2019-01-20T22:11:05.066Z,74.60
2019-01-20T22:13:35.372Z,72.80
2019-01-20T22:16:04.347Z,72.00
2019-01-20T22:18:33.883Z,70.90
2019-01-20T22:21:02.783Z,72.50
2019-01-20T22:23:31.866Z,73.20
2019-01-20T22:26:01.131Z,74.90
2019-01-20T22:28:31.666Z,76.00
2019-01-20T22:31:00.595Z,75.30
2019-01-20T22:33:29.480Z,77.30
2019-01-20T22:35:58.469Z,77.20
2019-01-20T22:38:27.417Z,76.40
2019-01-20T22:40:56.464Z,74.80
2019-01-20T22:43:25.495Z,73.70
2019-01-20T22:45:54.623Z,72.80
2019-01-20T22:48:23.771Z,72.70
2019-01-20T22:50:52.774Z,72.10
2019-01-20T22:53:21.701Z,72.20
2019-01-20T22:55:50.668Z,72.20
2019-01-20T22:58:19.892Z,72.10
2019-01-20T23:00:52.880Z,73.00
2019-01-20T23:03:22.201Z,74.80
2019-01-20T23:05:51.523Z,76.10
2019-01-20T23:08:21.882Z,76.10
2019-01-20T23:10:51.195Z,77.10
2019-01-20T23:13:20.266Z,77.50
2019-01-20T23:15:49.468Z,78.60
2019-01-20T23:18:21.195Z,79.10
2019-01-20T23:20:50.843Z,80.30
2019-01-20T23:23:24.401Z,81.20
2019-01-20T23:25:53.389Z,81.30
2019-01-20T23:28:25.113Z,81.00
2019-01-20T23:30:54.446Z,81.60
2019-01-20T23:33:25.082Z,82.90
2019-01-20T23:35:54.041Z,85.10
2019-01-20T23:38:22.963Z,85.10
2019-01-20T23:40:52.340Z,85.20
2019-01-20T23:43:21.240Z,84.30
2019-01-20T23:45:50.284Z,83.30
2019-01-20T23:48:19.178Z,81.90
2019-01-20T23:50:48.799Z,81.20
2019-01-20T23:53:19.343Z,79.70
2019-01-20T23:55:48.284Z,78.80
2019-01-20T23:58:17.518Z,77.20
